createdAt,value
2017-06-21T16:37:00.744Z,28.32
2017-06-21T16:38:00.785Z,28.33
2017-06-21T16:39:01.143Z,28.38
2017-06-21T16:40:00.868Z,28.36
2017-06-21T16:41:00.911Z,28.35
2017-06-21T16:42:00.963Z,28.4
2017-06-21T16:43:01.006Z,28.33
2017-06-21T16:44:01.051Z,28.28
2017-06-21T16:45:01.089Z,28.33
2017-06-21T16:46:01.138Z,28.26
2017-06-21T16:47:01.180Z,28.17
2017-06-21T16:48:01.222Z,28.28
2017-06-21T16:49:01.266Z,28.22
2017-06-21T16:50:01.313Z,28.25
2017-06-21T16:51:01.355Z,28.14
2017-06-21T16:52:01.400Z,28.13
2017-06-21T16:53:01.752Z,28.16
2017-06-21T16:54:01.485Z,28.14
2017-06-21T16:55:01.534Z,28.03
2017-06-21T16:56:01.885Z,28.03
2017-06-21T16:57:01.624Z,28.11
2017-06-21T16:58:01.975Z,27.99
2017-06-21T16:59:01.745Z,28.06
2017-06-21T17:00:01.751Z,27.95
2017-06-21T17:01:01.801Z,27.95
2017-06-21T17:02:01.847Z,27.96
2017-06-21T17:03:01.889Z,27.96
2017-06-21T17:04:01.931Z,28.03
2017-06-21T17:05:01.975Z,28.01
2017-06-21T17:06:02.034Z,27.85
2017-06-21T17:07:02.068Z,27.89
2017-06-21T17:08:02.426Z,27.91
2017-06-21T17:09:02.175Z,27.96
2017-06-21T17:10:02.204Z,27.92
2017-06-21T17:11:02.260Z,27.92
2017-06-21T17:12:02.597Z,27.88
2017-06-21T17:13:02.644Z,27.84
2017-06-21T17:14:02.409Z,27.84
2017-06-21T17:15:02.427Z,27.7
2017-06-21T17:16:02.472Z,27.76
2017-06-21T17:17:02.518Z,27.84
2017-06-21T17:18:02.560Z,27.76
2017-06-21T17:19:02.918Z,27.8
2017-06-21T17:20:02.653Z,27.7
2017-06-21T17:21:02.998Z,27.64
2017-06-21T17:22:02.735Z,27.61
2017-06-21T17:23:03.405Z,27.59
2017-06-21T17:24:02.825Z,27.66
2017-06-21T17:25:02.873Z,27.58
2017-06-21T17:26:02.915Z,27.64
2017-06-21T17:27:03.269Z,27.64
2017-06-21T17:28:03.316Z,27.67
2017-06-21T17:29:03.055Z,27.47
2017-06-21T17:30:03.097Z,27.47
2017-06-21T17:31:03.138Z,27.59
2017-06-21T17:32:03.189Z,27.47
2017-06-21T17:33:03.237Z,27.42
2017-06-21T17:34:03.586Z,27.41
2017-06-21T17:35:03.317Z,27.47
2017-06-21T17:36:03.366Z,27.43
2017-06-21T17:37:03.406Z,27.41
2017-06-21T17:38:03.450Z,27.39
2017-06-21T17:39:03.499Z,27.39
2017-06-21T17:40:03.865Z,27.32
2017-06-21T17:41:03.585Z,27.33
2017-06-21T17:42:03.636Z,27.29
2017-06-21T17:43:03.675Z,27.35
2017-06-21T17:44:04.028Z,27.26
2017-06-21T17:45:04.384Z,27.38
2017-06-21T17:46:03.809Z,27.35
2017-06-21T17:47:03.851Z,27.29
2017-06-21T17:48:03.910Z,27.33
2017-06-21T17:49:03.942Z,27.29
2017-06-21T17:50:04.293Z,27.28
2017-06-21T17:51:04.039Z,27.24
2017-06-21T17:52:04.077Z,27.31
2017-06-21T17:53:04.429Z,27.33
2017-06-21T17:54:04.175Z,27.28
2017-06-21T17:55:04.536Z,27.24
2017-06-21T17:56:04.577Z,27.21
2017-06-21T17:57:04.624Z,27.21
2017-06-21T17:58:04.347Z,27.2
2017-06-21T17:59:04.390Z,27.09
2017-06-21T18:00:04.745Z,27.06
2017-06-21T18:01:04.478Z,27.09
2017-06-21T18:02:04.521Z,27.05
2017-06-21T18:03:04.566Z,27.06
2017-06-21T18:04:04.607Z,27.09
2017-06-21T18:05:04.656Z,26.99
2017-06-21T18:06:04.695Z,27.04
2017-06-21T18:07:04.748Z,26.96
2017-06-21T18:08:05.094Z,26.95
2017-06-21T18:09:04.836Z,26.87
2017-06-21T18:10:04.875Z,26.83
2017-06-21T18:11:05.246Z,26.87
2017-06-21T18:12:04.963Z,26.8
2017-06-21T18:13:05.009Z,26.72
2017-06-21T18:14:05.051Z,26.77
2017-06-21T18:15:05.716Z,26.68
2017-06-21T18:16:05.452Z,26.65
2017-06-21T18:17:05.187Z,26.73
2017-06-21T18:18:05.229Z,26.65
2017-06-21T18:19:05.279Z,26.68
2017-06-21T18:20:05.321Z,26.57
2017-06-21T18:21:05.365Z,26.58
2017-06-21T18:22:05.408Z,26.52
2017-06-21T18:23:05.455Z,26.52
2017-06-21T18:24:05.803Z,26.46
2017-06-21T18:25:05.844Z,26.36
2017-06-21T18:26:05.582Z,26.42
2017-06-21T18:27:05.628Z,26.37
2017-06-21T18:28:05.671Z,26.36
2017-06-21T18:29:05.713Z,26.31
2017-06-21T18:30:05.755Z,26.31
2017-06-21T18:31:06.111Z,26.29
2017-06-21T18:32:06.173Z,26.22
2017-06-21T18:33:05.892Z,26.17
2017-06-21T18:34:06.247Z,26.15
2017-06-21T18:35:05.980Z,26.29
2017-06-21T18:36:06.022Z,26.21
2017-06-21T18:37:06.070Z,26.09
2017-06-21T18:38:06.117Z,26.15
2017-06-21T18:39:06.155Z,26.15
2017-06-21T18:40:06.199Z,26.09
2017-06-21T18:41:06.552Z,26.09
2017-06-21T18:42:06.607Z,26.08
2017-06-21T18:43:06.648Z,26.01
2017-06-21T18:44:06.692Z,26.01
2017-06-21T18:45:06.416Z,25.98
2017-06-21T18:46:06.785Z,25.99
2017-06-21T18:47:06.830Z,25.9
2017-06-21T18:48:06.555Z,25.93
2017-06-21T18:49:06.591Z,25.87
2017-06-21T18:50:06.952Z,25.84
2017-06-21T18:51:06.672Z,25.79
2017-06-21T18:52:06.727Z,25.79
2017-06-21T18:53:06.765Z,25.62
2017-06-21T18:54:07.112Z,25.79
2017-06-21T18:55:06.854Z,25.65
2017-06-21T18:56:06.892Z,25.65
2017-06-21T18:57:06.935Z,25.64
2017-06-21T18:58:06.987Z,25.61
2017-06-21T18:59:07.024Z,25.53
2017-06-21T19:00:07.068Z,25.52
2017-06-21T19:01:07.121Z,25.57
2017-06-21T19:02:07.154Z,25.52
2017-06-21T19:03:07.196Z,25.43
2017-06-21T19:04:07.244Z,25.3
2017-06-21T19:05:07.285Z,25.38
2017-06-21T19:06:07.326Z,25.27
2017-06-21T19:07:07.373Z,25.25
2017-06-21T19:08:07.410Z,25.27
2017-06-21T19:09:07.769Z,25.27
2017-06-21T19:10:07.500Z,25.24
2017-06-21T19:11:07.545Z,25.19
2017-06-21T19:12:07.590Z,25.15
2017-06-21T19:13:07.631Z,25.1
2017-06-21T19:14:07.670Z,25.15
2017-06-21T19:15:07.714Z,25.15
2017-06-21T19:16:07.761Z,25.05
2017-06-21T19:17:07.805Z,25.02
2017-06-21T19:18:08.159Z,25.06
2017-06-21T19:19:07.894Z,24.98
2017-06-21T19:20:07.937Z,25.01
2017-06-21T19:21:07.972Z,25.01
2017-06-21T19:22:08.025Z,24.94
2017-06-21T19:23:08.066Z,24.9
2017-06-21T19:24:08.107Z,24.82
2017-06-21T19:25:08.153Z,24.92
2017-06-21T19:26:08.497Z,24.82
2017-06-21T19:27:08.542Z,24.83
2017-06-21T19:28:08.591Z,24.79
2017-06-21T19:29:08.632Z,24.71
2017-06-21T19:30:08.368Z,24.61
2017-06-21T19:31:08.719Z,24.57
2017-06-21T19:32:08.451Z,24.5
2017-06-21T19:33:08.802Z,24.49
2017-06-21T19:34:08.537Z,24.38
2017-06-21T19:35:08.588Z,24.38
2017-06-21T19:36:08.618Z,24.38
2017-06-21T19:37:08.970Z,24.31
2017-06-21T19:38:08.708Z,24.31
2017-06-21T19:39:09.063Z,24.31
2017-06-21T19:40:08.794Z,24.32
2017-06-21T19:41:08.832Z,24.23
2017-06-21T19:42:08.873Z,24.23
2017-06-21T19:43:08.927Z,24.2
2017-06-21T19:44:08.963Z,24.14
2017-06-21T19:45:09.325Z,24.07
2017-06-21T19:46:09.361Z,24.07
2017-06-21T19:47:09.094Z,24.02
2017-06-21T19:48:09.142Z,23.9
2017-06-21T19:49:09.179Z,24.07
2017-06-21T19:50:09.217Z,23.92
2017-06-21T19:51:09.263Z,23.86
2017-06-21T19:52:09.300Z,23.87
2017-06-21T19:53:09.348Z,23.87
2017-06-21T19:54:09.385Z,23.9
2017-06-21T19:55:09.433Z,23.86
2017-06-21T19:56:09.475Z,23.86
2017-06-21T19:57:09.513Z,23.86
2017-06-21T19:58:09.558Z,23.87
2017-06-21T19:59:09.605Z,23.79
2017-06-21T20:00:09.647Z,23.71
2017-06-21T20:01:09.685Z,23.67
2017-06-21T20:02:09.733Z,23.7
2017-06-21T20:03:10.077Z,23.6
2017-06-21T20:04:09.818Z,23.55
2017-06-21T20:05:09.852Z,23.6
2017-06-21T20:06:10.205Z,23.5
2017-06-21T20:07:09.941Z,23.52
2017-06-21T20:08:09.982Z,23.42
2017-06-21T20:09:10.021Z,23.39
2017-06-21T20:10:10.068Z,23.35
2017-06-21T20:11:10.111Z,23.26
2017-06-21T20:12:10.154Z,23.26
2017-06-21T20:13:10.193Z,23.14
2017-06-21T20:14:10.237Z,23.22
2017-06-21T20:15:10.274Z,23.19
2017-06-21T20:16:10.322Z,23.08
2017-06-21T20:17:10.366Z,23.14
2017-06-21T20:18:10.715Z,22.93
2017-06-21T20:19:10.442Z,22.94
2017-06-21T20:20:10.801Z,22.86
2017-06-21T20:21:10.532Z,22.96
2017-06-21T20:22:10.570Z,22.86
2017-06-21T20:23:10.616Z,22.87
2017-06-21T20:24:10.657Z,22.84
2017-06-21T20:25:10.698Z,22.77
2017-06-21T20:26:10.736Z,22.77
2017-06-21T20:27:10.782Z,22.74
2017-06-21T20:28:11.019Z,22.69
2017-06-21T20:29:10.864Z,22.72
2017-06-21T20:30:11.217Z,22.72
2017-06-21T20:31:10.945Z,22.69
2017-06-21T20:32:10.996Z,22.71
2017-06-21T20:33:11.034Z,22.65
2017-06-21T20:34:11.075Z,22.69
2017-06-21T20:35:11.116Z,22.68
2017-06-21T20:36:11.467Z,22.65
2017-06-21T20:37:11.200Z,22.67
2017-06-21T20:38:11.243Z,22.64
2017-06-21T20:39:11.596Z,22.59
2017-06-21T20:40:11.324Z,22.53
2017-06-21T20:41:11.365Z,22.6
2017-06-21T20:42:11.408Z,22.57
2017-06-21T20:43:11.450Z,22.59
2017-06-21T20:44:11.491Z,22.56
2017-06-21T20:45:11.536Z,22.44
2017-06-21T20:46:11.881Z,22.59
2017-06-21T20:47:11.620Z,22.46
2017-06-21T20:48:11.968Z,22.41
2017-06-21T20:49:11.697Z,22.43
2017-06-21T20:50:11.744Z,22.47
2017-06-21T20:51:11.781Z,22.46
2017-06-21T20:52:11.821Z,22.41
2017-06-21T20:53:11.864Z,22.37
2017-06-21T20:54:12.226Z,22.41
2017-06-21T20:55:12.255Z,22.43
2017-06-21T20:56:11.992Z,22.38
2017-06-21T20:57:12.035Z,22.32
2017-06-21T20:58:12.071Z,22.31
2017-06-21T20:59:12.421Z,22.35
2017-06-21T21:00:12.161Z,22.38
2017-06-21T21:01:12.201Z,22.34
2017-06-21T21:02:12.549Z,22.23
2017-06-21T21:03:12.284Z,22.23
2017-06-21T21:04:12.628Z,22.28
2017-06-21T21:05:12.404Z,22.31
2017-06-21T21:06:12.406Z,22.22
2017-06-21T21:07:12.452Z,22.2
2017-06-21T21:08:12.490Z,22.13
2017-06-21T21:09:12.851Z,22.19
2017-06-21T21:10:12.883Z,22.17
2017-06-21T21:11:12.612Z,22.17
2017-06-21T21:12:12.965Z,22.16
2017-06-21T21:13:13.007Z,22.1
2017-06-21T21:14:12.734Z,22.07
2017-06-21T21:15:13.092Z,22.09
2017-06-21T21:16:13.129Z,22.01
2017-06-21T21:17:13.174Z,22.02
2017-06-21T21:18:12.900Z,21.97
2017-06-21T21:19:12.944Z,21.94
2017-06-21T21:20:12.983Z,21.9
2017-06-21T21:21:13.344Z,21.95
2017-06-21T21:22:13.066Z,21.81
2017-06-21T21:23:13.113Z,21.92
2017-06-21T21:24:13.150Z,21.83
2017-06-21T21:25:13.195Z,21.83
2017-06-21T21:26:13.239Z,21.83
2017-06-21T21:27:13.276Z,21.78
2017-06-21T21:28:13.321Z,21.75
2017-06-21T21:29:13.361Z,21.72
2017-06-21T21:30:13.403Z,21.81
2017-06-21T21:31:13.442Z,21.69
2017-06-21T21:32:13.480Z,21.67
2017-06-21T21:33:13.520Z,21.74
2017-06-21T21:34:13.564Z,21.66
2017-06-21T21:35:13.913Z,21.63
2017-06-21T21:36:13.954Z,21.63
2017-06-21T21:37:13.689Z,21.54
2017-06-21T21:38:13.732Z,21.59
2017-06-21T21:39:13.768Z,21.51
2017-06-21T21:40:13.814Z,21.48
2017-06-21T21:41:13.851Z,21.44
2017-06-21T21:42:13.898Z,21.42
2017-06-21T21:43:13.939Z,21.42
2017-06-21T21:44:13.979Z,21.24
2017-06-21T21:45:14.022Z,21.32
2017-06-21T21:46:14.062Z,21.34
2017-06-21T21:47:14.099Z,21.27
2017-06-21T21:48:14.450Z,21.2
2017-06-21T21:49:14.181Z,21.23
2017-06-21T21:50:14.222Z,21.2
2017-06-21T21:51:14.497Z,21.16
2017-06-21T21:52:14.303Z,21.2
2017-06-21T21:53:14.348Z,21.19
2017-06-21T21:54:14.694Z,21.19
2017-06-21T21:55:14.433Z,21.16
2017-06-21T21:56:14.470Z,21.23
2017-06-21T21:57:14.508Z,21.09
2017-06-21T21:58:14.555Z,21.19
2017-06-21T21:59:14.600Z,21.19
2017-06-21T22:00:14.946Z,21.11
2017-06-21T22:01:14.674Z,21.05
2017-06-21T22:02:14.711Z,21.06
2017-06-21T22:03:14.760Z,21.01
2017-06-21T22:04:14.799Z,20.99
2017-06-21T22:05:15.145Z,21.05
2017-06-21T22:06:15.188Z,20.93
2017-06-21T22:07:15.019Z,21.06
2017-06-21T22:08:14.964Z,21.02
2017-06-21T22:09:15.311Z,20.96
2017-06-21T22:10:15.043Z,20.93
2017-06-21T22:11:15.391Z,20.93
2017-06-21T22:12:15.137Z,20.91
2017-06-21T22:13:15.473Z,20.81
2017-06-21T22:14:15.206Z,20.84
2017-06-21T22:15:15.245Z,20.77
2017-06-21T22:16:15.598Z,20.87
2017-06-21T22:17:15.635Z,20.86
2017-06-21T22:18:15.372Z,20.86
2017-06-21T22:19:15.407Z,20.86
2017-06-21T22:20:15.449Z,20.74
2017-06-21T22:21:15.493Z,20.77
2017-06-21T22:22:15.532Z,20.74
2017-06-21T22:23:15.882Z,20.77
2017-06-21T22:24:15.615Z,20.71
2017-06-21T22:25:15.653Z,20.68
2017-06-21T22:26:15.699Z,20.62
2017-06-21T22:27:15.735Z,20.59
2017-06-21T22:28:15.781Z,20.59
2017-06-21T22:29:15.814Z,20.54
2017-06-21T22:30:15.860Z,20.5
2017-06-21T22:31:15.901Z,20.53
2017-06-21T22:32:15.937Z,20.53
2017-06-21T22:33:15.983Z,20.5
2017-06-21T22:34:16.018Z,20.49
2017-06-21T22:35:16.067Z,20.42
2017-06-21T22:36:16.104Z,20.49
2017-06-21T22:37:16.140Z,20.35
2017-06-21T22:38:16.491Z,20.35
2017-06-21T22:39:16.222Z,20.33
2017-06-21T22:40:16.268Z,20.28
2017-06-21T22:41:16.307Z,20.39
2017-06-21T22:42:16.344Z,20.33
2017-06-21T22:43:16.388Z,20.28
2017-06-21T22:44:16.734Z,20.3
2017-06-21T22:45:16.468Z,20.35
2017-06-21T22:46:16.818Z,20.34
2017-06-21T22:47:16.861Z,20.34
2017-06-21T22:48:16.588Z,20.28
2017-06-21T22:49:16.631Z,20.18
2017-06-21T22:50:16.984Z,20.25
2017-06-21T22:51:16.714Z,20.21
2017-06-21T22:52:16.765Z,20.15
2017-06-21T22:53:16.788Z,20.23
2017-06-21T22:54:16.831Z,20.24
2017-06-21T22:55:16.869Z,20.16
2017-06-21T22:56:16.914Z,20.05
2017-06-21T22:57:16.961Z,20
2017-06-21T22:58:16.993Z,19.95
2017-06-21T22:59:17.035Z,19.9
2017-06-21T23:00:17.078Z,19.9
2017-06-21T23:01:17.118Z,19.88
2017-06-21T23:02:17.154Z,19.94
2017-06-21T23:03:17.200Z,19.91
2017-06-21T23:04:17.235Z,19.83
2017-06-21T23:05:17.277Z,19.87
2017-06-21T23:06:17.318Z,19.8
2017-06-21T23:07:17.359Z,19.73
2017-06-21T23:08:17.396Z,19.73
2017-06-21T23:09:17.439Z,19.76
2017-06-21T23:10:17.478Z,19.79
2017-06-21T23:11:17.518Z,19.73
2017-06-21T23:12:17.566Z,19.76
2017-06-21T23:13:17.602Z,19.8
2017-06-21T23:14:17.640Z,19.78
2017-06-21T23:15:17.681Z,19.76
2017-06-21T23:16:17.719Z,19.8
2017-06-21T23:17:17.764Z,19.84
2017-06-21T23:18:17.802Z,19.79
2017-06-21T23:19:17.841Z,19.76
2017-06-21T23:20:17.888Z,19.86
2017-06-21T23:21:17.921Z,19.79
2017-06-21T23:22:17.966Z,19.78
2017-06-21T23:23:18.314Z,19.91
2017-06-21T23:24:18.045Z,19.9
2017-06-21T23:25:18.087Z,19.75
2017-06-21T23:26:18.432Z,19.86
2017-06-21T23:27:18.166Z,19.88
2017-06-21T23:28:18.207Z,19.8
2017-06-21T23:29:18.245Z,19.86
2017-06-21T23:30:18.282Z,19.84
2017-06-21T23:31:18.325Z,19.79
2017-06-21T23:32:18.368Z,19.83
2017-06-21T23:33:18.404Z,19.88
2017-06-21T23:34:18.445Z,19.87
2017-06-21T23:35:18.484Z,19.73
2017-06-21T23:36:18.534Z,19.8
2017-06-21T23:37:18.574Z,19.84
2017-06-21T23:38:18.608Z,19.76
2017-06-21T23:39:18.647Z,19.78
2017-06-21T23:40:18.994Z,19.66
2017-06-21T23:41:18.731Z,19.69
2017-06-21T23:42:18.773Z,19.7
2017-06-21T23:43:18.810Z,19.7
2017-06-21T23:44:18.851Z,19.68
2017-06-21T23:45:19.113Z,19.66
2017-06-21T23:46:18.926Z,19.65
2017-06-21T23:47:18.972Z,19.55
2017-06-21T23:48:19.011Z,19.63
2017-06-21T23:49:19.048Z,19.5
2017-06-21T23:50:19.402Z,19.55
2017-06-21T23:51:19.465Z,19.51
2017-06-21T23:52:19.173Z,19.53
2017-06-21T23:53:19.212Z,19.42
2017-06-21T23:54:19.259Z,19.5
2017-06-21T23:55:19.602Z,19.46
2017-06-21T23:56:19.329Z,19.46
2017-06-21T23:57:19.377Z,19.42
2017-06-21T23:58:19.409Z,19.54
2017-06-21T23:59:19.459Z,19.43
